Terminal Aerodrome Forecast
Issued by NWS

Home | Current Version | Previous Version | Text Only | Print | Product List | Glossary On
Versions: 1 2 3 4 5 6 7 8 9 10 11 12 13 14 15 16 17 18 19 20
000
FTUS46 KSEW 250500 RRA
TAFHQM
TAF
KHQM 250543Z 2506/2606 05014G24KT 3SM -RA BR OVC035
     FM250900 05012KT 5SM -RA BR OVC030
     FM251500 16015KT 6SM -RA BR BKN020 OVC035=

USA.gov is the U.S. government's official web portal to all federal, state and local government web resources and services.